createdAt,value
2023-05-18T00:00:14.316Z,6.80
2023-05-18T00:02:43.019Z,6.80
2023-05-18T00:05:11.714Z,6.80
2023-05-18T00:07:41.190Z,6.90
2023-05-18T00:10:11.460Z,6.90
2023-05-18T00:12:39.905Z,6.90
2023-05-18T00:15:11.556Z,6.90
2023-05-18T00:17:39.931Z,6.90
2023-05-18T00:20:10.395Z,6.90
2023-05-18T00:22:39.323Z,7.00
2023-05-18T00:25:07.929Z,7.10
2023-05-18T00:27:36.474Z,7.10
2023-05-18T00:30:06.535Z,7.10
2023-05-18T00:32:36.354Z,7.10
2023-05-18T00:35:05.230Z,7.00
2023-05-18T00:37:33.616Z,7.00
2023-05-18T00:40:01.947Z,7.00
2023-05-18T00:42:30.402Z,6.90
2023-05-18T00:44:58.855Z,6.90
2023-05-18T00:47:27.659Z,6.90
2023-05-18T00:49:57.393Z,6.90
2023-05-18T00:52:26.311Z,6.90
2023-05-18T00:54:55.137Z,6.90
2023-05-18T00:57:23.519Z,7.00
2023-05-18T00:59:52.297Z,6.90
2023-05-18T01:02:21.237Z,6.90
2023-05-18T01:04:49.711Z,6.90
2023-05-18T01:07:23.228Z,7.00
2023-05-18T01:09:51.592Z,7.00
2023-05-18T01:12:26.118Z,7.20
2023-05-18T01:15:01.969Z,7.20
2023-05-18T01:17:36.662Z,7.30
2023-05-18T01:20:20.427Z,7.30
2023-05-18T01:23:11.976Z,7.30
2023-05-18T01:25:49.550Z,7.20
2023-05-18T01:28:22.267Z,7.20
2023-05-18T01:30:52.040Z,7.30
2023-05-18T01:33:20.537Z,7.30
2023-05-18T01:35:49.103Z,7.30
2023-05-18T01:38:18.983Z,7.30
2023-05-18T01:40:58.030Z,7.20
2023-05-18T01:43:35.448Z,7.20
2023-05-18T01:46:11.945Z,7.00
2023-05-18T01:48:43.789Z,7.00
2023-05-18T01:51:16.523Z,7.00
2023-05-18T01:53:47.972Z,7.00
2023-05-18T01:56:16.754Z,6.90
2023-05-18T01:58:46.640Z,6.90
2023-05-18T02:01:16.223Z,6.90
2023-05-18T02:03:45.521Z,6.90
2023-05-18T02:06:13.898Z,7.00
2023-05-18T02:08:42.207Z,7.00
2023-05-18T02:11:10.936Z,7.00
2023-05-18T02:13:39.269Z,7.00
2023-05-18T02:16:10.935Z,7.00
2023-05-18T02:18:39.973Z,7.00
2023-05-18T02:21:09.483Z,7.00
2023-05-18T02:23:37.907Z,6.90
2023-05-18T02:26:06.389Z,6.90
2023-05-18T02:28:34.902Z,6.90
2023-05-18T02:31:08.993Z,6.80
2023-05-18T02:33:40.044Z,6.80
2023-05-18T02:36:12.408Z,6.80
2023-05-18T02:38:42.285Z,6.70
2023-05-18T02:41:12.158Z,6.70
2023-05-18T02:43:40.629Z,6.70
2023-05-18T02:46:10.409Z,6.60
2023-05-18T02:48:38.921Z,6.70
2023-05-18T02:51:07.377Z,6.80
2023-05-18T02:53:35.822Z,6.80
2023-05-18T02:56:04.971Z,6.80
2023-05-18T02:58:33.563Z,6.80
2023-05-18T03:01:03.649Z,6.80
2023-05-18T03:03:33.774Z,6.80
2023-05-18T03:06:02.658Z,6.70
2023-05-18T03:08:31.597Z,6.70
2023-05-18T03:11:00.495Z,6.80
2023-05-18T03:13:28.825Z,6.70
2023-05-18T03:15:57.783Z,6.70
2023-05-18T03:18:26.588Z,6.60
2023-05-18T03:20:56.350Z,6.50
2023-05-18T03:23:24.787Z,6.50
2023-05-18T03:25:54.392Z,6.40
2023-05-18T03:28:23.320Z,6.30
2023-05-18T03:30:51.865Z,6.40
2023-05-18T03:33:20.372Z,6.40
2023-05-18T03:35:52.468Z,6.40
2023-05-18T03:38:22.464Z,6.40
2023-05-18T03:40:50.955Z,6.40
2023-05-18T03:43:19.314Z,6.30
2023-05-18T03:45:47.895Z,6.30
2023-05-18T03:48:16.384Z,6.40
2023-05-18T03:50:44.993Z,6.40
2023-05-18T03:53:13.425Z,6.40
2023-05-18T03:55:43.327Z,6.50
2023-05-18T03:58:11.665Z,6.60
2023-05-18T04:00:40.655Z,6.60
2023-05-18T04:03:12.515Z,6.60
2023-05-18T04:05:42.906Z,6.70
2023-05-18T04:08:14.412Z,6.70
2023-05-18T04:10:44.666Z,6.80
2023-05-18T04:13:13.332Z,6.80
2023-05-18T04:15:42.043Z,6.80
2023-05-18T04:18:11.042Z,6.80
2023-05-18T04:20:39.404Z,6.80
2023-05-18T04:23:09.745Z,6.80
2023-05-18T04:25:39.625Z,6.90
2023-05-18T04:28:10.202Z,6.90
2023-05-18T04:30:38.995Z,6.90
2023-05-18T04:33:07.761Z,7.00
2023-05-18T04:35:36.440Z,7.10
2023-05-18T04:38:05.337Z,7.10
2023-05-18T04:40:34.594Z,7.20
2023-05-18T04:43:04.065Z,7.20
2023-05-18T04:45:34.445Z,7.30
2023-05-18T04:48:04.053Z,7.50
2023-05-18T04:50:32.428Z,7.60
2023-05-18T04:53:02.545Z,7.60
2023-05-18T04:55:31.592Z,7.60
2023-05-18T04:58:01.390Z,7.70
2023-05-18T05:00:30.965Z,7.70
2023-05-18T05:03:01.188Z,7.70
2023-05-18T05:05:30.725Z,7.80
2023-05-18T05:07:59.934Z,8.00
2023-05-18T05:10:29.209Z,8.20
2023-05-18T05:12:57.565Z,8.40
2023-05-18T05:15:26.007Z,8.60
2023-05-18T05:17:54.499Z,8.80
2023-05-18T05:20:24.406Z,9.00
2023-05-18T05:22:52.824Z,9.10
2023-05-18T05:25:21.619Z,9.20
2023-05-18T05:27:50.002Z,9.30
2023-05-18T05:30:18.391Z,9.50
2023-05-18T05:32:46.906Z,9.60
2023-05-18T05:35:15.475Z,9.70
2023-05-18T05:37:45.409Z,9.70
2023-05-18T05:40:14.100Z,10.00
2023-05-18T05:42:44.176Z,10.10
2023-05-18T05:45:15.090Z,10.10
2023-05-18T05:47:43.555Z,10.10
2023-05-18T05:50:12.279Z,9.90
2023-05-18T05:52:40.786Z,9.80
2023-05-18T05:55:10.759Z,9.60
2023-05-18T05:57:42.627Z,9.60
2023-05-18T06:00:12.888Z,9.50
2023-05-18T06:02:41.655Z,9.60
2023-05-18T06:05:10.912Z,9.80
2023-05-18T06:07:39.329Z,9.80
2023-05-18T06:10:08.791Z,9.70
2023-05-18T06:12:38.533Z,9.80
2023-05-18T06:15:07.795Z,9.70
2023-05-18T06:17:36.298Z,9.90
2023-05-18T06:20:07.036Z,9.90
2023-05-18T06:22:36.397Z,10.20
2023-05-18T06:27:35.015Z,10.50
2023-05-18T06:47:27.983Z,11.10
2023-05-18T07:12:23.388Z,12.20
2023-05-18T07:14:51.944Z,12.60
2023-05-18T07:19:49.148Z,12.80
2023-05-18T07:34:43.705Z,13.10
2023-05-18T07:37:12.104Z,13.70
2023-05-18T07:39:41.874Z,13.50
2023-05-18T07:42:11.750Z,13.50
2023-05-18T07:44:40.187Z,13.70
2023-05-18T07:47:08.774Z,13.70
2023-05-18T07:49:39.117Z,13.80
2023-05-18T07:52:11.491Z,14.00
2023-05-18T07:54:41.325Z,14.00
2023-05-18T07:57:09.705Z,13.90
2023-05-18T07:59:38.139Z,13.80
2023-05-18T08:02:06.613Z,14.10
2023-05-18T08:04:35.185Z,14.20
2023-05-18T08:07:05.176Z,14.30
2023-05-18T08:09:33.660Z,14.10
2023-05-18T08:12:03.494Z,14.40
2023-05-18T08:14:35.058Z,14.20
2023-05-18T08:17:05.131Z,14.40
2023-05-18T08:19:33.686Z,14.70
2023-05-18T08:22:02.208Z,14.50
2023-05-18T08:24:30.633Z,14.50
2023-05-18T08:26:58.995Z,14.20
2023-05-18T08:29:28.738Z,14.10
2023-05-18T08:31:57.064Z,14.40
2023-05-18T08:41:58.732Z,14.60
2023-05-18T08:44:39.897Z,14.80
2023-05-18T08:47:11.534Z,15.20
2023-05-18T08:49:41.727Z,15.30
2023-05-18T08:52:10.887Z,15.20
2023-05-18T08:54:39.671Z,15.20
2023-05-18T08:57:10.651Z,15.50
2023-05-18T08:59:43.285Z,15.70
2023-05-18T09:02:11.818Z,15.50
2023-05-18T09:04:42.605Z,15.60
2023-05-18T09:07:13.510Z,15.50
2023-05-18T09:09:42.657Z,15.50
2023-05-18T09:12:14.194Z,15.50
2023-05-18T09:14:44.682Z,15.00
2023-05-18T09:17:13.261Z,15.40
2023-05-18T09:19:41.808Z,15.40
2023-05-18T09:22:10.154Z,15.20
2023-05-18T09:24:39.110Z,14.90
2023-05-18T09:27:07.694Z,14.70
2023-05-18T09:29:36.164Z,14.50
2023-05-18T09:32:11.877Z,14.30
2023-05-18T09:34:45.545Z,14.40
2023-05-18T09:37:17.127Z,14.50
2023-05-18T09:39:45.541Z,14.50
2023-05-18T09:42:13.970Z,14.40
2023-05-18T09:44:43.039Z,14.50
2023-05-18T09:47:12.868Z,14.70
2023-05-18T09:49:42.211Z,14.80
2023-05-18T09:52:10.966Z,14.80
2023-05-18T09:54:39.367Z,14.60
2023-05-18T09:57:11.174Z,14.50
2023-05-18T09:59:40.352Z,14.60
2023-05-18T10:02:12.258Z,14.80
2023-05-18T10:04:43.480Z,14.70
2023-05-18T10:07:13.599Z,14.80
2023-05-18T10:09:42.667Z,14.70
2023-05-18T10:12:15.793Z,15.00
2023-05-18T10:14:46.090Z,15.40
2023-05-18T10:17:16.690Z,15.40
2023-05-18T10:19:49.606Z,15.50
2023-05-18T10:22:19.673Z,15.60
2023-05-18T10:24:52.371Z,15.50
2023-05-18T10:27:25.508Z,15.00
2023-05-18T10:29:55.274Z,14.80
2023-05-18T10:32:26.492Z,14.60
2023-05-18T10:34:57.628Z,14.60
2023-05-18T10:37:30.699Z,14.30
2023-05-18T10:40:01.112Z,14.10
2023-05-18T10:42:31.942Z,13.90
2023-05-18T10:45:01.804Z,13.80
2023-05-18T10:47:32.118Z,13.80
2023-05-18T10:50:05.250Z,13.60
2023-05-18T10:56:57.784Z,14.10
2023-05-18T11:04:10.568Z,15.30
2023-05-18T11:15:23.954Z,15.60
2023-05-18T11:26:30.227Z,16.40
2023-05-18T11:38:09.690Z,15.70
2023-05-18T11:40:48.007Z,15.20
2023-05-18T11:47:48.807Z,15.30
2023-05-18T13:50:07.041Z,18.40
2023-05-18T13:53:21.834Z,18.60
2023-05-18T13:56:35.659Z,18.70
2023-05-18T14:00:20.952Z,18.70
2023-05-18T14:03:11.916Z,18.30
2023-05-18T14:06:32.328Z,18.30
2023-05-18T14:10:25.992Z,18.30
2023-05-18T14:14:02.981Z,17.80
2023-05-18T14:20:56.665Z,17.80
2023-05-18T14:24:36.713Z,18.10
2023-05-18T14:38:44.432Z,18.00
2023-05-18T14:42:06.141Z,18.30
2023-05-18T14:45:56.545Z,18.10
2023-05-18T14:49:26.589Z,18.20
2023-05-18T14:52:32.610Z,18.10
2023-05-18T14:55:55.349Z,18.20
2023-05-18T14:59:10.172Z,18.40
2023-05-18T15:02:56.272Z,18.70
2023-05-18T15:06:18.187Z,18.90
2023-05-18T15:09:29.552Z,18.70
2023-05-18T15:16:17.817Z,17.90
2023-05-18T15:23:19.585Z,17.80
2023-05-18T15:26:57.241Z,17.50
2023-05-18T15:30:30.113Z,17.40
2023-05-18T15:35:00.670Z,17.20
2023-05-18T15:37:20.954Z,17.40
2023-05-18T15:40:40.340Z,17.30
2023-05-18T15:43:57.094Z,17.10
2023-05-18T15:50:23.078Z,18.00
2023-05-18T15:56:45.769Z,18.10
2023-05-18T16:00:10.303Z,18.30
2023-05-18T16:03:26.719Z,18.50
2023-05-18T16:06:28.864Z,18.20
2023-05-18T16:15:11.521Z,18.20
2023-05-18T16:18:41.372Z,18.10
2023-05-18T16:25:06.479Z,18.40
2023-05-18T16:28:11.268Z,18.70
2023-05-18T16:31:26.008Z,18.90
2023-05-18T16:42:12.573Z,18.40
2023-05-18T16:48:44.511Z,17.80
2023-05-18T16:52:05.416Z,17.00
2023-05-18T16:55:12.549Z,16.80
2023-05-18T17:06:22.086Z,17.00
2023-05-18T17:06:45.151Z,16.10
2023-05-18T17:17:03.193Z,15.30
2023-05-18T17:21:24.883Z,15.30
2023-05-18T17:24:36.538Z,15.30
2023-05-18T17:28:21.701Z,15.10
2023-05-18T17:31:44.586Z,15.20
2023-05-18T17:35:08.489Z,15.00
2023-05-18T17:42:01.514Z,15.00
2023-05-18T17:48:25.323Z,14.90
2023-05-18T17:58:44.151Z,14.80
2023-05-18T18:01:45.427Z,14.90
2023-05-18T18:05:17.983Z,14.90
2023-05-18T18:08:47.108Z,14.90
2023-05-18T18:11:57.389Z,14.90
2023-05-18T18:15:49.551Z,14.90
2023-05-18T18:22:50.761Z,14.90
2023-05-18T18:25:55.215Z,14.90
2023-05-18T18:28:56.937Z,14.80
2023-05-18T18:32:03.222Z,14.80
2023-05-18T18:35:18.398Z,14.80
2023-05-18T18:38:54.207Z,14.70
2023-05-18T18:45:48.651Z,14.50
2023-05-18T18:48:56.875Z,14.50
2023-05-18T18:52:55.298Z,14.40
2023-05-18T18:57:07.754Z,14.30
2023-05-18T19:00:55.850Z,14.10
2023-05-18T19:04:02.218Z,13.90
2023-05-18T19:07:17.140Z,13.80
2023-05-18T19:23:36.194Z,13.40
2023-05-18T19:26:35.157Z,12.70
2023-05-18T19:33:10.577Z,12.50
2023-05-18T19:36:47.464Z,12.40
2023-05-18T19:40:31.706Z,12.30
2023-05-18T19:43:46.893Z,12.10
2023-05-18T19:47:00.281Z,11.90
2023-05-18T19:50:16.261Z,11.70
2023-05-18T19:53:38.785Z,11.50
2023-05-18T19:56:52.841Z,11.40
2023-05-18T20:00:57.289Z,11.50
2023-05-18T20:04:41.692Z,11.50
2023-05-18T20:07:41.854Z,11.50
2023-05-18T20:14:05.000Z,11.40
2023-05-18T20:14:57.338Z,11.30
2023-05-18T20:21:35.040Z,11.00
2023-05-18T20:24:47.249Z,10.90
2023-05-18T20:27:52.573Z,10.80
2023-05-18T20:31:11.857Z,10.80
2023-05-18T20:38:40.121Z,10.70
2023-05-18T20:42:26.020Z,10.70
2023-05-18T20:45:43.745Z,10.70
2023-05-18T20:52:20.065Z,10.60
2023-05-18T20:55:23.588Z,10.50
2023-05-18T20:58:29.973Z,10.40
2023-05-18T21:01:40.066Z,10.30
2023-05-18T21:04:57.013Z,10.10
2023-05-18T21:11:37.979Z,9.90
2023-05-18T21:15:03.324Z,9.80
2023-05-18T21:18:15.744Z,9.80
2023-05-18T21:25:07.787Z,9.70
2023-05-18T21:28:19.204Z,9.80
2023-05-18T21:34:57.465Z,9.80
2023-05-18T21:47:52.680Z,9.70
2023-05-18T21:51:20.104Z,9.70
2023-05-18T21:54:32.898Z,9.70
2023-05-18T21:57:51.310Z,9.70
2023-05-18T22:07:49.769Z,9.50
2023-05-18T22:10:56.824Z,9.50
2023-05-18T22:14:17.625Z,9.50
2023-05-18T22:17:24.603Z,9.40
2023-05-18T22:20:26.794Z,9.50
2023-05-18T22:30:46.771Z,9.40
2023-05-18T22:34:13.681Z,9.40
2023-05-18T22:47:39.198Z,9.10
2023-05-18T22:50:40.619Z,8.90
2023-05-18T22:54:06.155Z,8.80
2023-05-18T22:57:55.280Z,8.90
2023-05-18T23:01:10.908Z,9.00
2023-05-18T23:07:43.411Z,8.90
2023-05-18T23:24:21.800Z,8.40
2023-05-18T23:27:31.307Z,8.10
2023-05-18T23:30:45.588Z,8.00
2023-05-18T23:34:01.891Z,8.10
2023-05-18T23:43:58.088Z,8.00
2023-05-18T23:50:22.494Z,7.70
2023-05-18T23:53:59.828Z,7.70
2023-05-18T23:57:06.663Z,7.80
